createdAt,value
2023-03-06T00:00:21.150Z,55.00
2023-03-06T00:04:29.968Z,55.20
2023-03-06T00:06:57.746Z,54.20
2023-03-06T00:09:26.068Z,52.50
2023-03-06T00:11:55.695Z,52.40
2023-03-06T00:14:22.916Z,52.90
2023-03-06T00:16:58.281Z,54.00
2023-03-06T00:19:26.047Z,50.70
2023-03-06T00:22:02.878Z,55.60
2023-03-06T00:24:29.729Z,51.80
2023-03-06T00:26:56.625Z,52.60
2023-03-06T00:29:23.819Z,53.50
2023-03-06T00:31:52.732Z,48.80
2023-03-06T00:34:20.273Z,49.70
2023-03-06T00:36:47.653Z,44.80
2023-03-06T00:39:17.540Z,46.40
2023-03-06T00:41:46.915Z,43.20
2023-03-06T00:44:14.024Z,44.60
2023-03-06T00:46:41.237Z,42.80
2023-03-06T00:49:08.696Z,41.20
2023-03-06T00:51:37.986Z,40.30
2023-03-06T00:54:05.092Z,38.10
2023-03-06T00:56:36.071Z,39.80
2023-03-06T00:59:03.371Z,26.60
2023-03-06T01:01:30.219Z,29.40
2023-03-06T01:03:57.328Z,27.00
2023-03-06T01:06:25.698Z,34.60
2023-03-06T01:08:53.872Z,32.50
2023-03-06T01:11:20.762Z,34.90
2023-03-06T01:13:48.313Z,24.60
2023-03-06T01:16:16.094Z,26.20
2023-03-06T01:18:43.174Z,29.50
2023-03-06T01:21:10.308Z,25.60
2023-03-06T01:23:38.882Z,25.70
2023-03-06T01:26:05.992Z,28.30
2023-03-06T01:28:34.765Z,29.70
2023-03-06T01:31:03.654Z,31.90
2023-03-06T01:33:32.554Z,33.80
2023-03-06T01:35:59.808Z,29.80
2023-03-06T01:38:26.601Z,33.30
2023-03-06T01:40:53.458Z,32.50
2023-03-06T01:43:23.759Z,29.80
2023-03-06T01:45:51.454Z,30.10
2023-03-06T01:48:19.041Z,30.20
2023-03-06T01:50:49.470Z,28.30
2023-03-06T01:53:16.334Z,24.00
2023-03-06T01:55:43.718Z,28.40
2023-03-06T01:58:12.878Z,23.90
2023-03-06T02:00:40.184Z,21.20
2023-03-06T02:03:08.786Z,24.60
2023-03-06T02:05:36.758Z,22.20
2023-03-06T02:08:23.410Z,25.20
2023-03-06T02:10:58.725Z,28.50
2023-03-06T02:13:25.627Z,30.20
2023-03-06T02:15:52.453Z,35.50
2023-03-06T02:18:20.898Z,30.60
2023-03-06T02:20:52.692Z,24.30
2023-03-06T02:23:38.384Z,38.20
2023-03-06T02:26:05.439Z,40.60
2023-03-06T02:28:32.627Z,44.30
2023-03-06T02:30:59.807Z,73.40
2023-03-06T02:33:28.246Z,53.90
2023-03-06T02:36:04.681Z,68.80
2023-03-06T02:38:37.174Z,48.00
2023-03-06T02:41:06.492Z,35.00
2023-03-06T02:43:36.313Z,26.50
2023-03-06T02:46:05.408Z,21.80
2023-03-06T02:48:35.321Z,19.40
2023-03-06T02:51:05.646Z,17.70
2023-03-06T02:53:32.565Z,17.90
2023-03-06T02:56:00.024Z,17.60
2023-03-06T02:58:27.186Z,17.30
2023-03-06T03:00:54.245Z,15.20
2023-03-06T03:03:22.701Z,16.10
2023-03-06T03:05:49.763Z,18.80
2023-03-06T03:08:29.875Z,28.50
2023-03-06T03:11:00.858Z,9.00
2023-03-06T03:13:31.628Z,6.70
2023-03-06T03:15:59.249Z,26.70
2023-03-06T03:18:26.378Z,8.20
2023-03-06T03:20:53.810Z,16.60
2023-03-06T03:23:21.482Z,9.10
2023-03-06T03:25:49.024Z,7.90
2023-03-06T03:28:16.493Z,8.80
2023-03-06T03:30:44.450Z,9.60
2023-03-06T03:33:12.534Z,7.70
2023-03-06T03:35:45.436Z,10.90
2023-03-06T03:38:12.821Z,8.60
2023-03-06T03:40:40.261Z,8.20
2023-03-06T03:43:08.209Z,7.10
2023-03-06T03:45:35.586Z,7.10
2023-03-06T03:48:03.381Z,7.50
2023-03-06T03:50:30.414Z,6.40
2023-03-06T03:52:59.130Z,6.70
2023-03-06T03:55:27.028Z,7.40
2023-03-06T03:57:54.823Z,7.40
2023-03-06T04:00:23.270Z,8.20
2023-03-06T04:02:57.211Z,7.00
2023-03-06T04:05:29.830Z,6.70
2023-03-06T04:08:02.744Z,11.30
2023-03-06T04:10:34.474Z,8.50
2023-03-06T04:13:02.776Z,7.50
2023-03-06T04:15:33.002Z,9.50
2023-03-06T04:18:01.407Z,7.90
2023-03-06T04:20:29.476Z,8.60
2023-03-06T04:22:57.514Z,8.10
2023-03-06T04:25:24.846Z,9.30
2023-03-06T04:27:51.927Z,8.20
2023-03-06T04:30:19.390Z,9.80
2023-03-06T04:32:48.012Z,8.90
2023-03-06T04:35:15.397Z,8.10
2023-03-06T04:37:50.303Z,8.10
2023-03-06T04:40:27.756Z,7.40
2023-03-06T04:42:56.247Z,9.00
2023-03-06T04:45:26.894Z,9.50
2023-03-06T04:47:57.008Z,8.40
2023-03-06T04:50:24.833Z,8.00
2023-03-06T04:52:56.046Z,8.60
2023-03-06T04:55:22.843Z,8.90
2023-03-06T04:57:49.807Z,8.10
2023-03-06T05:00:20.359Z,9.00
2023-03-06T05:02:47.836Z,9.30
2023-03-06T05:05:15.340Z,9.00
2023-03-06T05:07:42.446Z,10.40
2023-03-06T05:10:11.955Z,9.90
2023-03-06T05:15:35.880Z,7.90
2023-03-06T05:18:04.414Z,7.40
2023-03-06T05:20:33.970Z,7.60
2023-03-06T05:23:02.174Z,6.60
2023-03-06T05:25:32.713Z,8.40
2023-03-06T05:28:01.674Z,6.90
2023-03-06T05:30:31.674Z,7.30
2023-03-06T05:33:04.199Z,8.50
2023-03-06T05:35:44.271Z,10.30
2023-03-06T05:38:13.731Z,9.60
2023-03-06T05:40:43.207Z,10.30
2023-03-06T05:43:12.062Z,9.70
2023-03-06T05:45:41.208Z,10.70
2023-03-06T05:48:10.571Z,12.70
2023-03-06T05:50:39.693Z,15.00
2023-03-06T05:53:09.638Z,13.70
2023-03-06T05:55:37.857Z,14.80
2023-03-06T05:58:06.342Z,13.70
2023-03-06T06:00:35.513Z,12.80
2023-03-06T06:03:06.708Z,12.50
2023-03-06T06:05:39.379Z,11.50
2023-03-06T06:08:09.872Z,9.60
2023-03-06T06:10:39.892Z,10.80
2023-03-06T06:13:14.711Z,9.30
2023-03-06T06:15:57.800Z,8.40
2023-03-06T06:18:27.818Z,7.40
2023-03-06T06:20:59.407Z,8.30
2023-03-06T06:23:29.547Z,7.50
2023-03-06T06:26:02.710Z,7.70
2023-03-06T06:28:33.896Z,6.60
2023-03-06T06:31:13.598Z,7.40
2023-03-06T06:33:43.339Z,7.20
2023-03-06T06:36:16.356Z,6.60
2023-03-06T06:38:46.686Z,8.40
2023-03-06T06:44:08.483Z,6.70
2023-03-06T06:47:20.917Z,7.60
2023-03-06T06:49:27.440Z,7.10
2023-03-06T06:51:56.399Z,7.80
2023-03-06T06:54:25.546Z,7.40
2023-03-06T06:56:54.522Z,6.60
2023-03-06T06:59:23.996Z,8.00
2023-03-06T07:13:51.557Z,6.50
2023-03-06T07:16:19.704Z,7.10
2023-03-06T07:18:46.778Z,5.60
2023-03-06T07:21:13.850Z,6.90
2023-03-06T07:23:42.138Z,6.70
2023-03-06T07:26:12.179Z,5.50
2023-03-06T07:28:52.044Z,6.10
2023-03-06T07:31:27.071Z,5.90
2023-03-06T07:33:57.683Z,6.10
2023-03-06T07:36:26.008Z,7.10
2023-03-06T07:38:56.244Z,4.80
2023-03-06T07:41:23.645Z,6.00
2023-03-06T07:43:51.906Z,5.80
2023-03-06T07:46:19.452Z,5.20
2023-03-06T07:48:50.719Z,5.80
2023-03-06T07:51:19.423Z,6.00
2023-03-06T10:52:06.980Z,5.50
2023-03-06T10:54:41.240Z,4.80
2023-03-06T10:57:30.348Z,4.30
2023-03-06T11:00:08.095Z,4.90
2023-03-06T11:02:39.028Z,3.80
2023-03-06T11:05:18.555Z,6.40
2023-03-06T11:07:56.062Z,6.10
2023-03-06T11:10:23.862Z,6.50
2023-03-06T11:17:28.143Z,5.30
2023-03-06T11:20:14.066Z,5.30
2023-03-06T11:22:50.425Z,5.40
2023-03-06T11:25:18.439Z,4.30
2023-03-06T11:27:46.876Z,4.60
2023-03-06T11:30:26.007Z,4.60
2023-03-06T11:33:01.505Z,4.90
2023-03-06T11:35:35.367Z,5.40
2023-03-06T11:38:14.212Z,6.00
2023-03-06T11:40:44.931Z,5.80
2023-03-06T11:43:48.442Z,4.40
2023-03-06T11:46:24.760Z,3.80
2023-03-06T11:48:53.860Z,4.90
2023-03-06T11:51:25.310Z,5.00
2023-03-06T11:53:52.186Z,5.40
2023-03-06T11:56:19.594Z,5.30
2023-03-06T11:59:02.244Z,5.50
2023-03-06T12:01:33.294Z,6.90
2023-03-06T12:04:24.919Z,7.20
2023-03-06T12:07:15.904Z,6.20
2023-03-06T12:10:25.714Z,6.50
2023-03-06T12:15:57.311Z,6.20
2023-03-06T12:18:56.489Z,6.20
2023-03-06T12:21:57.998Z,5.50
2023-03-06T12:24:49.786Z,5.00
2023-03-06T12:27:33.602Z,5.20
2023-03-06T12:30:06.282Z,5.00
2023-03-06T12:32:39.558Z,4.90
2023-03-06T12:35:27.349Z,4.50
2023-03-06T12:38:09.548Z,4.80
2023-03-06T12:40:51.231Z,5.80
2023-03-06T12:43:43.175Z,4.50
2023-03-06T12:46:36.438Z,4.90
2023-03-06T12:49:33.134Z,3.50
2023-03-06T12:52:01.026Z,5.10
2023-03-06T12:54:29.402Z,4.50
2023-03-06T12:56:56.591Z,4.60
2023-03-06T12:59:43.778Z,6.00
2023-03-06T13:02:45.623Z,4.80
2023-03-06T13:05:31.697Z,6.50
2023-03-06T13:08:22.618Z,5.00
2023-03-06T13:11:26.900Z,5.00
2023-03-06T13:13:53.861Z,4.90
2023-03-06T13:16:33.114Z,4.90
2023-03-06T13:19:10.832Z,5.50
2023-03-06T13:22:06.691Z,5.60
2023-03-06T13:24:36.669Z,6.40
2023-03-06T13:27:06.621Z,5.80
2023-03-06T13:29:36.955Z,5.60
2023-03-06T13:32:03.818Z,5.70
2023-03-06T13:34:36.999Z,6.20
2023-03-06T13:37:18.957Z,5.30
2023-03-06T13:39:56.250Z,5.40
2023-03-06T13:42:36.213Z,6.10
2023-03-06T13:45:16.142Z,5.20
2023-03-06T13:48:19.558Z,5.80
2023-03-06T13:50:43.032Z,7.50
2023-03-06T13:53:31.571Z,7.10
2023-03-06T13:56:37.643Z,6.70
2023-03-06T13:59:23.642Z,5.70
2023-03-06T14:01:57.432Z,5.60
2023-03-06T14:04:36.051Z,5.00
2023-03-06T14:07:06.586Z,5.70
2023-03-06T14:09:40.895Z,5.30
2023-03-06T14:12:13.171Z,5.10
2023-03-06T14:14:47.647Z,5.90
2023-03-06T14:17:19.656Z,5.00
2023-03-06T14:19:46.792Z,4.60
2023-03-06T14:22:21.741Z,5.50
2023-03-06T14:24:59.229Z,5.70
2023-03-06T14:27:43.515Z,5.60
2023-03-06T14:30:12.979Z,5.90
2023-03-06T14:32:43.532Z,5.60
2023-03-06T14:35:28.573Z,7.00
2023-03-06T14:38:00.431Z,5.90
2023-03-06T14:40:30.561Z,7.00
2023-03-06T14:43:11.907Z,7.10
2023-03-06T14:45:59.934Z,9.00
2023-03-06T14:48:41.672Z,7.50
2023-03-06T14:51:18.645Z,8.50
2023-03-06T14:53:49.788Z,9.50
2023-03-06T14:56:19.010Z,9.30
2023-03-06T14:58:52.163Z,8.40
2023-03-06T15:01:32.551Z,8.70
2023-03-06T15:04:00.126Z,9.40
2023-03-06T15:06:39.774Z,7.60
2023-03-06T15:09:20.301Z,7.30
2023-03-06T15:11:57.174Z,8.00
2023-03-06T15:14:32.741Z,10.40
2023-03-06T15:17:15.049Z,8.80
2023-03-06T15:19:53.703Z,10.80
2023-03-06T15:22:33.025Z,9.80
2023-03-06T15:25:21.668Z,10.50
2023-03-06T15:27:50.793Z,11.20
2023-03-06T15:30:25.417Z,14.70
2023-03-06T15:35:31.444Z,12.10
2023-03-06T15:37:58.949Z,13.40
2023-03-06T15:40:29.883Z,12.40
2023-03-06T15:42:58.944Z,11.90
2023-03-06T15:45:27.048Z,13.70
2023-03-06T15:47:55.053Z,13.90
2023-03-06T15:50:24.923Z,12.10
2023-03-06T15:57:28.961Z,13.90
2023-03-06T15:59:56.357Z,15.20
2023-03-06T16:02:23.920Z,16.20
2023-03-06T16:04:51.087Z,16.00
2023-03-06T16:07:18.611Z,16.30
2023-03-06T16:09:49.610Z,18.20
2023-03-06T16:12:18.862Z,15.80
2023-03-06T16:14:47.363Z,16.50
2023-03-06T16:17:14.496Z,18.20
2023-03-06T16:19:42.859Z,17.80
2023-03-06T16:22:11.064Z,18.60
2023-03-06T16:24:38.072Z,16.40
2023-03-06T16:27:06.421Z,19.30
2023-03-06T16:29:36.901Z,19.40
2023-03-06T16:32:06.177Z,19.10
2023-03-06T16:34:34.052Z,19.70
2023-03-06T16:37:03.199Z,17.40
2023-03-06T16:39:30.441Z,19.00
2023-03-06T16:42:03.919Z,19.00
2023-03-06T16:44:31.680Z,18.80
2023-03-06T16:46:58.534Z,17.30
2023-03-06T16:49:26.241Z,18.90
2023-03-06T16:51:53.348Z,18.70
2023-03-06T16:54:22.737Z,20.80
2023-03-06T16:56:49.666Z,27.80
2023-03-06T16:59:17.348Z,32.10
2023-03-06T17:01:45.117Z,26.60
2023-03-06T17:04:12.183Z,22.40
2023-03-06T17:06:43.265Z,21.50
2023-03-06T17:09:13.861Z,20.00
2023-03-06T17:11:42.918Z,18.40
2023-03-06T17:14:10.108Z,20.10
2023-03-06T17:16:39.761Z,18.80
2023-03-06T17:19:10.048Z,19.60
2023-03-06T17:21:38.244Z,18.00
2023-03-06T17:24:05.657Z,16.50
2023-03-06T17:26:33.374Z,17.50
2023-03-06T17:29:00.490Z,17.70
2023-03-06T17:31:27.513Z,14.50
2023-03-06T17:34:01.176Z,13.10
2023-03-06T17:36:29.582Z,14.10
2023-03-06T17:39:01.546Z,13.70
2023-03-06T17:41:29.645Z,13.90
2023-03-06T17:43:58.676Z,15.30
2023-03-06T17:46:25.973Z,15.20
2023-03-06T17:48:54.410Z,15.50
2023-03-06T17:51:21.308Z,22.00
2023-03-06T17:53:49.223Z,22.10
2023-03-06T17:56:16.944Z,24.40
2023-03-06T17:58:44.060Z,19.40
2023-03-06T18:01:12.952Z,21.70
2023-03-06T18:04:01.698Z,21.80
2023-03-06T18:06:31.334Z,23.60
2023-03-06T18:08:59.043Z,20.90
2023-03-06T18:11:33.764Z,28.80
2023-03-06T18:14:00.621Z,28.90
2023-03-06T18:16:47.633Z,21.80
2023-03-06T18:19:15.220Z,19.30
2023-03-06T18:21:42.202Z,16.80
2023-03-06T18:24:10.714Z,19.80
2023-03-06T18:26:41.706Z,18.80
2023-03-06T18:29:09.706Z,16.30
2023-03-06T18:31:38.798Z,13.80
2023-03-06T18:34:11.101Z,12.50
2023-03-06T18:36:38.299Z,11.80
2023-03-06T18:39:08.025Z,11.30
2023-03-06T18:41:40.843Z,13.20
2023-03-06T18:44:08.249Z,13.00
2023-03-06T18:46:37.051Z,13.50
2023-03-06T18:49:04.080Z,15.80
2023-03-06T18:51:36.484Z,18.70
2023-03-06T18:54:04.354Z,23.60
2023-03-06T18:56:31.970Z,21.10
2023-03-06T18:59:06.000Z,20.10
2023-03-06T19:04:01.760Z,20.60
2023-03-06T19:06:29.297Z,21.10
2023-03-06T19:09:00.976Z,21.80
2023-03-06T19:11:28.597Z,22.10
2023-03-06T19:13:56.592Z,27.10
2023-03-06T19:16:25.553Z,31.30
2023-03-06T19:18:55.181Z,23.60
2023-03-06T19:21:24.286Z,22.10
2023-03-06T19:23:51.716Z,23.40
2023-03-06T19:26:18.992Z,25.10
2023-03-06T19:28:46.217Z,23.30
2023-03-06T19:31:20.536Z,24.40
2023-03-06T19:33:52.721Z,24.80
2023-03-06T19:36:19.945Z,24.50
2023-03-06T19:38:52.125Z,22.60
2023-03-06T19:41:19.517Z,21.40
2023-03-06T19:43:52.249Z,21.70
2023-03-06T19:46:20.512Z,22.00
2023-03-06T19:48:55.599Z,26.70
2023-03-06T19:51:24.817Z,25.90
2023-03-06T19:53:58.510Z,24.80
2023-03-06T19:56:27.254Z,24.00
2023-03-06T19:58:54.098Z,20.50
2023-03-06T20:01:22.385Z,17.70
2023-03-06T20:03:50.183Z,18.80
2023-03-06T20:06:19.091Z,24.70
2023-03-06T20:08:46.465Z,31.00
2023-03-06T20:11:19.776Z,24.50
2023-03-06T20:13:47.745Z,19.20
2023-03-06T20:16:16.694Z,19.70
2023-03-06T20:18:46.937Z,19.00
2023-03-06T20:21:14.166Z,18.20
2023-03-06T20:23:41.664Z,19.40
2023-03-06T20:26:11.407Z,20.10
2023-03-06T20:28:40.932Z,20.60
2023-03-06T20:31:10.253Z,19.10
2023-03-06T20:33:37.711Z,19.80
2023-03-06T20:36:11.222Z,18.80
2023-03-06T20:38:39.069Z,20.20
2023-03-06T20:41:13.096Z,19.50
2023-03-06T20:43:46.406Z,19.30
2023-03-06T20:46:19.489Z,18.90
2023-03-06T20:48:50.696Z,18.80
2023-03-06T20:51:27.395Z,17.90
2023-03-06T20:53:55.413Z,16.00
2023-03-06T20:56:27.339Z,14.50
2023-03-06T20:58:54.534Z,15.70
2023-03-06T21:01:29.833Z,14.60
2023-03-06T21:03:57.478Z,14.70
2023-03-06T21:06:27.696Z,14.70
2023-03-06T21:09:45.022Z,17.20
2023-03-06T21:12:15.950Z,16.90
2023-03-06T21:14:43.826Z,17.40
2023-03-06T21:17:12.293Z,18.20
2023-03-06T21:19:41.175Z,18.00
2023-03-06T21:22:08.156Z,18.10
2023-03-06T21:24:35.143Z,17.20
2023-03-06T21:27:03.164Z,17.50
2023-03-06T21:29:30.347Z,19.10
2023-03-06T21:31:58.712Z,16.60
2023-03-06T21:34:25.659Z,16.50
2023-03-06T21:36:52.390Z,17.70
2023-03-06T21:39:19.141Z,16.30
2023-03-06T21:41:46.068Z,15.70
2023-03-06T21:44:14.232Z,14.00
2023-03-06T21:46:41.023Z,15.00
2023-03-06T21:49:08.223Z,14.20
2023-03-06T21:51:35.670Z,14.00
2023-03-06T21:54:02.528Z,14.80
2023-03-06T21:56:29.632Z,13.40
2023-03-06T21:58:57.644Z,14.20
2023-03-06T22:01:30.772Z,14.80
2023-03-06T22:03:58.086Z,14.50
2023-03-06T22:06:25.620Z,15.70
2023-03-06T22:08:55.278Z,14.90
2023-03-06T22:11:22.951Z,16.40
2023-03-06T22:13:52.905Z,15.40
2023-03-06T22:16:20.351Z,16.30
2023-03-06T22:18:49.272Z,16.90
2023-03-06T22:21:17.562Z,16.40
2023-03-06T22:23:54.656Z,14.40
2023-03-06T22:26:21.576Z,15.20
2023-03-06T22:28:52.531Z,13.30
2023-03-06T22:31:23.508Z,14.30
2023-03-06T22:33:51.819Z,16.10
2023-03-06T22:36:18.839Z,14.20
2023-03-06T22:38:45.882Z,14.70
2023-03-06T22:41:14.246Z,16.10
2023-03-06T22:43:41.187Z,15.80
2023-03-06T22:46:13.055Z,14.60
2023-03-06T22:48:42.252Z,16.40
2023-03-06T22:51:13.522Z,14.10
2023-03-06T22:53:42.353Z,15.30
2023-03-06T22:57:55.200Z,13.90
2023-03-06T23:00:23.826Z,12.70
2023-03-06T23:02:52.267Z,13.10
2023-03-06T23:05:21.469Z,13.50
2023-03-06T23:07:51.856Z,11.40
2023-03-06T23:10:21.206Z,12.40
2023-03-06T23:13:08.572Z,11.40
2023-03-06T23:15:55.950Z,10.80
2023-03-06T23:18:43.321Z,11.00
2023-03-06T23:21:30.416Z,10.70
2023-03-06T23:24:17.489Z,10.10
2023-03-06T23:26:46.036Z,9.90
2023-03-06T23:29:15.623Z,10.50
2023-03-06T23:31:43.834Z,10.10
2023-03-06T23:34:12.073Z,10.30
2023-03-06T23:36:41.973Z,10.30
2023-03-06T23:39:12.281Z,11.40
2023-03-06T23:41:41.036Z,8.90
2023-03-06T23:44:09.615Z,10.30
2023-03-06T23:46:37.745Z,8.90
2023-03-06T23:49:08.153Z,9.00
2023-03-06T23:51:36.484Z,9.40
2023-03-06T23:54:04.668Z,9.30
2023-03-06T23:56:33.773Z,9.80
2023-03-06T23:59:03.382Z,10.30
